createdAt,value
2022-10-26T00:00:34.601Z,12.50
2022-10-26T00:03:03.875Z,12.50
2022-10-26T00:05:35.165Z,12.50
2022-10-26T00:08:03.404Z,12.50
2022-10-26T00:10:31.928Z,12.50
2022-10-26T00:13:00.088Z,12.50
2022-10-26T00:15:27.983Z,12.40
2022-10-26T00:17:56.093Z,12.50
2022-10-26T00:20:25.396Z,12.40
2022-10-26T00:22:53.363Z,12.40
2022-10-26T00:25:21.486Z,12.40
2022-10-26T00:27:49.611Z,12.40
2022-10-26T00:30:17.722Z,12.40
2022-10-26T00:32:45.633Z,12.40
2022-10-26T00:35:23.074Z,12.30
2022-10-26T00:37:57.921Z,12.30
2022-10-26T00:40:29.715Z,12.30
2022-10-26T00:42:58.584Z,12.30
2022-10-26T00:45:28.973Z,12.30
2022-10-26T00:47:59.904Z,12.30
2022-10-26T00:50:32.303Z,12.30
2022-10-26T00:53:05.120Z,12.30
2022-10-26T00:55:36.919Z,12.30
2022-10-26T00:58:08.874Z,12.20
2022-10-26T01:00:37.175Z,12.20
2022-10-26T01:03:07.701Z,12.20
2022-10-26T01:05:38.606Z,12.20
2022-10-26T01:08:09.786Z,12.20
2022-10-26T01:10:39.951Z,12.20
2022-10-26T01:13:08.086Z,12.20
2022-10-26T01:15:45.831Z,12.10
2022-10-26T01:18:22.192Z,12.10
2022-10-26T01:21:20.184Z,12.10
2022-10-26T01:24:07.295Z,12.10
2022-10-26T01:30:37.644Z,12.10
2022-10-26T01:33:21.022Z,12.10
2022-10-26T01:35:56.616Z,12.00
2022-10-26T01:38:31.565Z,12.00
2022-10-26T01:41:08.723Z,12.00
2022-10-26T01:43:41.573Z,12.00
2022-10-26T01:46:12.665Z,12.00
2022-10-26T01:48:42.383Z,12.00
2022-10-26T01:51:12.568Z,12.00
2022-10-26T01:53:46.732Z,12.00
2022-10-26T01:56:19.726Z,11.90
2022-10-26T01:59:23.949Z,11.90
2022-10-26T02:02:23.046Z,11.90
2022-10-26T02:05:05.173Z,11.90
2022-10-26T02:07:41.197Z,11.90
2022-10-26T02:10:19.432Z,11.90
2022-10-26T02:12:58.750Z,11.80
2022-10-26T02:15:34.941Z,11.90
2022-10-26T02:18:14.444Z,11.90
2022-10-26T02:20:47.740Z,11.80
2022-10-26T02:23:16.644Z,11.80
2022-10-26T02:25:50.330Z,11.80
2022-10-26T02:28:23.668Z,11.80
2022-10-26T02:30:56.328Z,11.80
2022-10-26T02:33:28.262Z,11.80
2022-10-26T02:35:59.412Z,11.70
2022-10-26T02:38:29.847Z,11.70
2022-10-26T02:40:59.075Z,11.80
2022-10-26T02:46:08.188Z,11.70
2022-10-26T02:48:39.309Z,11.80
2022-10-26T02:51:13.428Z,11.80
2022-10-26T02:53:47.825Z,11.70
2022-10-26T02:56:21.156Z,11.70
2022-10-26T02:58:52.945Z,11.70
2022-10-26T03:01:21.257Z,11.70
2022-10-26T03:03:50.846Z,11.80
2022-10-26T03:06:23.654Z,11.80
2022-10-26T03:08:52.363Z,11.70
2022-10-26T03:11:20.692Z,11.70
2022-10-26T03:13:49.037Z,11.70
2022-10-26T03:16:16.959Z,11.80
2022-10-26T03:18:44.850Z,11.70
2022-10-26T03:21:14.311Z,11.70
2022-10-26T03:23:42.208Z,11.80
2022-10-26T03:26:11.398Z,11.70
2022-10-26T03:28:39.698Z,11.70
2022-10-26T03:31:08.290Z,11.70
2022-10-26T03:36:06.934Z,11.70
2022-10-26T03:38:36.739Z,11.70
2022-10-26T03:41:04.631Z,11.70
2022-10-26T03:43:32.582Z,11.70
2022-10-26T03:46:00.702Z,11.70
2022-10-26T03:48:28.654Z,11.70
2022-10-26T03:50:59.057Z,11.60
2022-10-26T03:53:26.915Z,11.70
2022-10-26T03:55:56.288Z,11.70
2022-10-26T03:58:27.195Z,11.60
2022-10-26T04:00:55.248Z,11.60
2022-10-26T04:03:23.614Z,11.60
2022-10-26T04:05:51.580Z,11.60
2022-10-26T04:08:19.607Z,11.60
2022-10-26T04:10:48.196Z,11.60
2022-10-26T04:13:19.648Z,11.60
2022-10-26T04:15:47.443Z,11.60
2022-10-26T04:18:15.361Z,11.60
2022-10-26T04:20:43.540Z,11.60
2022-10-26T04:23:13.755Z,11.60
2022-10-26T04:25:42.733Z,11.60
2022-10-26T04:28:13.072Z,11.60
2022-10-26T04:30:43.262Z,11.60
2022-10-26T04:33:11.476Z,11.60
2022-10-26T04:35:39.379Z,11.60
2022-10-26T04:38:08.550Z,11.60
2022-10-26T04:40:36.952Z,11.50
2022-10-26T04:43:05.050Z,11.60
2022-10-26T04:45:33.023Z,11.50
2022-10-26T04:48:04.279Z,11.50
2022-10-26T04:50:32.457Z,11.50
2022-10-26T04:53:00.580Z,11.50
2022-10-26T04:55:28.688Z,11.50
2022-10-26T04:57:58.643Z,11.50
2022-10-26T05:00:30.361Z,11.50
2022-10-26T05:03:02.405Z,11.50
2022-10-26T05:05:34.205Z,11.50
2022-10-26T05:08:02.298Z,11.50
2022-10-26T05:10:30.291Z,11.50
2022-10-26T05:13:00.113Z,11.50
2022-10-26T05:15:28.628Z,11.50
2022-10-26T05:17:57.714Z,11.40
2022-10-26T05:20:30.045Z,11.40
2022-10-26T05:22:58.363Z,11.40
2022-10-26T05:25:26.783Z,11.40
2022-10-26T05:27:59.175Z,11.40
2022-10-26T05:30:27.710Z,11.40
2022-10-26T05:32:56.226Z,11.40
2022-10-26T05:35:24.642Z,11.40
2022-10-26T05:37:53.902Z,11.30
2022-10-26T05:40:22.670Z,11.40
2022-10-26T05:42:51.409Z,11.30
2022-10-26T05:45:19.893Z,11.30
2022-10-26T05:47:48.255Z,11.30
2022-10-26T05:50:16.642Z,11.30
2022-10-26T05:52:45.813Z,11.30
2022-10-26T05:55:17.247Z,11.30
2022-10-26T05:57:45.714Z,11.30
2022-10-26T06:00:18.624Z,11.30
2022-10-26T06:03:02.492Z,11.30
2022-10-26T06:05:36.793Z,11.20
2022-10-26T06:08:09.216Z,11.20
2022-10-26T06:10:40.546Z,11.30
2022-10-26T06:13:09.120Z,11.20
2022-10-26T06:15:49.069Z,11.20
2022-10-26T06:18:26.335Z,11.20
2022-10-26T06:21:11.864Z,11.20
2022-10-26T06:23:49.110Z,11.20
2022-10-26T06:26:30.847Z,11.20
2022-10-26T06:29:04.838Z,11.20
2022-10-26T06:31:32.809Z,11.10
2022-10-26T06:34:01.608Z,11.20
2022-10-26T06:36:30.709Z,11.20
2022-10-26T06:39:02.699Z,11.10
2022-10-26T06:41:34.965Z,11.10
2022-10-26T06:44:03.596Z,11.10
2022-10-26T06:46:40.210Z,11.10
2022-10-26T06:49:16.146Z,11.10
2022-10-26T06:51:53.015Z,11.10
2022-10-26T06:54:26.968Z,11.10
2022-10-26T06:56:57.391Z,11.10
2022-10-26T06:59:33.856Z,11.10
2022-10-26T07:02:04.410Z,11.10
2022-10-26T07:04:34.809Z,11.10
2022-10-26T07:07:04.355Z,11.10
2022-10-26T07:09:32.408Z,11.00
2022-10-26T07:12:02.321Z,11.00
2022-10-26T07:14:32.584Z,11.00
2022-10-26T07:17:00.860Z,11.10
2022-10-26T07:19:28.874Z,11.10
2022-10-26T07:21:59.175Z,11.00
2022-10-26T07:24:27.503Z,11.10
2022-10-26T07:26:56.185Z,11.10
2022-10-26T07:29:26.929Z,11.10
2022-10-26T07:31:55.436Z,11.10
2022-10-26T07:34:23.434Z,11.10
2022-10-26T07:36:52.049Z,11.10
2022-10-26T07:39:20.259Z,11.10
2022-10-26T07:41:48.604Z,11.10
2022-10-26T07:44:16.772Z,11.10
2022-10-26T07:46:46.252Z,11.10
2022-10-26T07:49:16.341Z,11.10
2022-10-26T07:51:47.157Z,11.20
2022-10-26T07:54:15.056Z,11.20
2022-10-26T07:56:43.108Z,11.20
2022-10-26T07:59:13.804Z,11.20
2022-10-26T08:01:42.040Z,11.20
2022-10-26T08:04:11.703Z,11.20
2022-10-26T08:06:40.791Z,11.20
2022-10-26T08:09:08.811Z,11.30
2022-10-26T08:11:37.213Z,11.30
2022-10-26T08:14:06.145Z,11.30
2022-10-26T08:16:34.897Z,11.30
2022-10-26T08:19:02.981Z,11.30
2022-10-26T08:21:39.465Z,11.30
2022-10-26T08:24:08.798Z,11.30
2022-10-26T08:26:37.078Z,11.40
2022-10-26T08:29:05.459Z,11.40
2022-10-26T08:31:33.432Z,11.40
2022-10-26T08:34:01.862Z,11.50
2022-10-26T08:36:30.179Z,11.50
2022-10-26T08:41:37.977Z,11.50
2022-10-26T08:44:23.328Z,11.50
2022-10-26T08:46:56.309Z,11.60
2022-10-26T08:49:26.991Z,11.60
2022-10-26T08:51:57.549Z,11.60
2022-10-26T08:54:35.605Z,11.60
2022-10-26T08:57:12.524Z,11.60
2022-10-26T08:59:47.363Z,11.60
2022-10-26T09:02:17.432Z,11.70
2022-10-26T09:04:46.070Z,11.70
2022-10-26T09:07:26.311Z,11.70
2022-10-26T09:10:04.154Z,11.70
2022-10-26T09:12:44.401Z,11.70
2022-10-26T09:15:19.264Z,11.70
2022-10-26T09:17:56.465Z,11.70
2022-10-26T09:20:43.133Z,11.80
2022-10-26T09:23:23.112Z,11.80
2022-10-26T09:25:59.668Z,11.80
2022-10-26T09:28:30.604Z,11.80
2022-10-26T09:31:00.744Z,11.90
2022-10-26T09:33:30.466Z,11.90
2022-10-26T09:36:02.272Z,11.90
2022-10-26T09:38:32.354Z,11.90
2022-10-26T09:41:07.020Z,12.00
2022-10-26T09:43:41.175Z,12.00
2022-10-26T09:46:14.445Z,12.00
2022-10-26T09:48:49.361Z,12.00
2022-10-26T09:51:18.101Z,12.00
2022-10-26T09:53:46.610Z,12.10
2022-10-26T09:56:16.412Z,12.10
2022-10-26T09:58:48.217Z,12.20
2022-10-26T10:01:23.776Z,12.20
2022-10-26T10:04:11.727Z,12.20
2022-10-26T10:06:39.873Z,12.20
2022-10-26T10:09:11.672Z,12.20
2022-10-26T10:11:42.259Z,12.20
2022-10-26T10:14:15.453Z,12.30
2022-10-26T10:16:51.861Z,12.30
2022-10-26T10:19:25.091Z,12.30
2022-10-26T10:21:56.325Z,12.30
2022-10-26T10:24:26.770Z,12.30
2022-10-26T10:27:02.117Z,12.40
2022-10-26T10:29:32.138Z,12.40
2022-10-26T10:32:02.163Z,12.40
2022-10-26T10:34:32.249Z,12.50
2022-10-26T10:37:01.706Z,12.50
2022-10-26T10:39:39.756Z,12.50
2022-10-26T10:42:19.664Z,12.50
2022-10-26T10:44:52.284Z,12.60
2022-10-26T10:47:24.236Z,12.60
2022-10-26T10:49:55.489Z,12.60
2022-10-26T10:52:26.430Z,12.70
2022-10-26T10:55:04.679Z,12.70
2022-10-26T10:57:40.890Z,12.70
2022-10-26T11:00:11.495Z,12.70
2022-10-26T11:03:16.727Z,12.80
2022-10-26T11:06:04.858Z,12.80
2022-10-26T11:08:40.313Z,12.80
2022-10-26T11:11:13.983Z,12.90
2022-10-26T11:13:50.035Z,12.90
2022-10-26T11:16:23.687Z,12.90
2022-10-26T11:18:55.904Z,13.00
2022-10-26T11:21:28.904Z,12.90
2022-10-26T11:24:11.314Z,13.00
2022-10-26T11:26:46.278Z,13.00
2022-10-26T11:29:25.014Z,13.00
2022-10-26T11:31:55.966Z,13.10
2022-10-26T11:34:31.041Z,13.10
2022-10-26T11:37:04.933Z,13.10
2022-10-26T11:39:39.412Z,13.10
2022-10-26T11:42:16.480Z,13.20
2022-10-26T11:44:53.138Z,13.20
2022-10-26T11:47:27.056Z,13.20
2022-10-26T11:50:04.356Z,13.30
2022-10-26T11:52:40.508Z,13.30
2022-10-26T11:55:11.399Z,13.30
2022-10-26T11:57:40.005Z,13.30
2022-10-26T12:00:16.973Z,13.40
2022-10-26T12:02:50.282Z,13.40
2022-10-26T12:05:21.966Z,13.40
2022-10-26T12:07:53.291Z,13.40
2022-10-26T12:10:27.701Z,13.40
2022-10-26T12:13:02.638Z,13.50
2022-10-26T12:18:54.424Z,13.50
2022-10-26T12:21:25.061Z,13.50
2022-10-26T12:23:58.055Z,13.60
2022-10-26T12:26:53.810Z,13.60
2022-10-26T12:29:30.379Z,13.70
2022-10-26T12:32:00.348Z,13.70
2022-10-26T12:34:59.461Z,13.70
2022-10-26T12:37:36.723Z,13.70
2022-10-26T12:40:40.707Z,13.80
2022-10-26T12:43:37.714Z,13.80
2022-10-26T12:46:42.238Z,13.80
2022-10-26T12:49:57.188Z,13.80
2022-10-26T12:52:35.348Z,13.90
2022-10-26T12:55:36.825Z,13.90
2022-10-26T12:58:32.533Z,13.90
2022-10-26T13:01:33.953Z,14.00
2022-10-26T13:04:25.834Z,14.00
2022-10-26T13:07:35.163Z,14.00
2022-10-26T13:10:06.744Z,14.00
2022-10-26T13:12:47.750Z,14.00
2022-10-26T13:16:19.474Z,14.00
2022-10-26T13:19:27.222Z,14.10
2022-10-26T13:22:00.812Z,14.10
2022-10-26T13:24:31.180Z,14.10
2022-10-26T13:27:26.402Z,14.20
2022-10-26T13:30:36.512Z,14.20
2022-10-26T13:33:08.791Z,14.20
2022-10-26T13:35:41.010Z,14.20
2022-10-26T13:38:13.515Z,14.20
2022-10-26T13:40:42.244Z,14.30
2022-10-26T13:43:21.294Z,14.30
2022-10-26T13:45:54.674Z,14.30
2022-10-26T13:48:29.817Z,14.30
2022-10-26T13:51:01.802Z,14.30
2022-10-26T13:53:40.409Z,14.40
2022-10-26T13:56:18.746Z,14.40
2022-10-26T13:58:51.824Z,14.40
2022-10-26T14:01:25.970Z,14.40
2022-10-26T14:03:53.912Z,14.40
2022-10-26T14:06:27.501Z,14.40
2022-10-26T14:08:58.371Z,14.50
2022-10-26T14:11:33.440Z,14.50
2022-10-26T14:14:03.876Z,14.50
2022-10-26T14:16:34.451Z,14.50
2022-10-26T14:19:02.570Z,14.50
2022-10-26T14:21:31.229Z,14.50
2022-10-26T14:24:03.561Z,14.60
2022-10-26T14:26:39.218Z,14.60
2022-10-26T14:29:18.614Z,14.60
2022-10-26T14:31:46.760Z,14.60
2022-10-26T14:34:15.006Z,14.60
2022-10-26T14:36:47.528Z,14.60
2022-10-26T14:39:21.633Z,14.60
2022-10-26T14:41:51.252Z,14.60
2022-10-26T14:44:23.198Z,14.70
2022-10-26T14:46:51.553Z,14.70
2022-10-26T14:49:22.639Z,14.70
2022-10-26T14:51:57.008Z,14.70
2022-10-26T14:54:27.235Z,14.70
2022-10-26T14:56:55.770Z,14.80
2022-10-26T14:59:28.388Z,14.80
2022-10-26T15:01:58.157Z,14.80
2022-10-26T15:04:33.449Z,14.80
2022-10-26T15:07:17.750Z,14.80
2022-10-26T15:09:47.476Z,14.80
2022-10-26T15:12:27.315Z,14.80
2022-10-26T15:14:57.745Z,14.80
2022-10-26T15:17:32.412Z,14.90
2022-10-26T15:20:05.402Z,14.90
2022-10-26T15:22:34.278Z,14.90
2022-10-26T15:25:06.667Z,14.90
2022-10-26T15:27:34.805Z,14.90
2022-10-26T15:30:20.827Z,14.90
2022-10-26T15:32:49.111Z,14.90
2022-10-26T15:35:29.464Z,14.90
2022-10-26T15:37:59.159Z,14.90
2022-10-26T15:40:29.055Z,14.90
2022-10-26T15:43:00.820Z,14.90
2022-10-26T15:45:33.894Z,14.90
2022-10-26T15:48:18.763Z,14.90
2022-10-26T15:50:46.575Z,14.90
2022-10-26T15:53:21.357Z,14.90
2022-10-26T15:55:50.430Z,14.90
2022-10-26T15:58:18.582Z,14.90
2022-10-26T16:00:48.139Z,14.90
2022-10-26T16:03:18.700Z,14.90
2022-10-26T16:05:47.218Z,14.90
2022-10-26T16:08:18.499Z,14.90
2022-10-26T16:10:47.594Z,14.90
2022-10-26T16:13:16.078Z,14.90
2022-10-26T16:15:44.554Z,14.90
2022-10-26T16:18:14.052Z,14.90
2022-10-26T16:20:42.743Z,14.90
2022-10-26T16:23:10.713Z,14.90
2022-10-26T16:25:44.078Z,14.90
2022-10-26T16:28:13.661Z,14.90
2022-10-26T16:30:41.991Z,14.80
2022-10-26T16:33:09.883Z,14.80
2022-10-26T16:35:39.437Z,14.80
2022-10-26T16:38:07.522Z,14.80
2022-10-26T16:40:35.441Z,14.80
2022-10-26T16:43:03.406Z,14.80
2022-10-26T16:45:31.341Z,14.80
2022-10-26T16:47:59.415Z,14.80
2022-10-26T16:50:27.677Z,14.70
2022-10-26T16:52:56.922Z,14.80
2022-10-26T16:55:27.027Z,14.70
2022-10-26T16:57:54.904Z,14.70
2022-10-26T17:00:22.993Z,14.70
2022-10-26T17:02:51.201Z,14.70
2022-10-26T17:05:19.144Z,14.70
2022-10-26T17:07:48.319Z,14.60
2022-10-26T17:10:18.427Z,14.70
2022-10-26T17:12:49.601Z,14.60
2022-10-26T17:15:19.881Z,14.60
2022-10-26T17:17:48.972Z,14.60
2022-10-26T17:20:19.149Z,14.50
2022-10-26T17:22:47.348Z,14.50
2022-10-26T17:25:17.088Z,14.50
2022-10-26T17:27:46.698Z,14.50
2022-10-26T17:30:16.392Z,14.50
2022-10-26T17:32:45.662Z,14.50
2022-10-26T17:35:16.900Z,14.50
2022-10-26T17:37:44.921Z,14.40
2022-10-26T17:40:15.170Z,14.50
2022-10-26T17:42:44.735Z,14.40
2022-10-26T17:45:14.498Z,14.40
2022-10-26T17:47:42.761Z,14.40
2022-10-26T17:50:11.481Z,14.40
2022-10-26T17:52:39.525Z,14.40
2022-10-26T17:55:07.877Z,14.40
2022-10-26T17:57:36.239Z,14.30
2022-10-26T18:00:09.195Z,14.30
2022-10-26T18:02:37.765Z,14.30
2022-10-26T18:05:07.667Z,14.30
2022-10-26T18:07:35.944Z,14.30
2022-10-26T18:10:13.731Z,14.30
2022-10-26T18:12:53.171Z,14.20
2022-10-26T18:15:24.243Z,14.20
2022-10-26T18:17:56.744Z,14.20
2022-10-26T18:20:26.542Z,14.20
2022-10-26T18:22:54.536Z,14.20
2022-10-26T18:25:22.807Z,14.20
2022-10-26T18:27:51.092Z,14.20
2022-10-26T18:30:19.072Z,14.10
2022-10-26T18:32:50.288Z,14.10
2022-10-26T18:35:18.854Z,14.10
2022-10-26T18:37:46.760Z,14.10
2022-10-26T18:40:15.350Z,14.10
2022-10-26T18:42:43.719Z,14.10
2022-10-26T18:45:12.400Z,14.10
2022-10-26T18:47:40.472Z,14.00
2022-10-26T18:50:10.732Z,14.00
2022-10-26T18:52:38.664Z,14.00
2022-10-26T18:55:07.574Z,14.00
2022-10-26T18:57:35.567Z,14.00
2022-10-26T19:00:03.719Z,14.00
2022-10-26T19:02:31.586Z,14.00
2022-10-26T19:04:59.679Z,13.90
2022-10-26T19:07:29.051Z,13.90
2022-10-26T19:10:02.380Z,13.90
2022-10-26T19:12:30.310Z,13.90
2022-10-26T19:14:58.710Z,13.90
2022-10-26T19:17:27.207Z,13.90
2022-10-26T19:19:55.147Z,13.90
2022-10-26T19:22:23.316Z,13.90
2022-10-26T19:24:52.693Z,13.80
2022-10-26T19:27:20.849Z,13.80
2022-10-26T19:29:48.849Z,13.80
2022-10-26T19:32:16.763Z,13.80
2022-10-26T19:34:44.720Z,13.80
2022-10-26T19:37:13.436Z,13.80
2022-10-26T19:39:41.856Z,13.80
2022-10-26T19:42:11.480Z,13.80
2022-10-26T19:44:39.438Z,13.70
2022-10-26T19:47:07.522Z,13.70
2022-10-26T19:49:35.597Z,13.70
2022-10-26T19:52:05.268Z,13.70
2022-10-26T19:54:33.607Z,13.70
2022-10-26T19:57:01.575Z,13.70
2022-10-26T19:59:31.186Z,13.60
2022-10-26T20:02:01.499Z,13.70
2022-10-26T20:04:29.462Z,13.60
2022-10-26T20:06:57.812Z,13.60
2022-10-26T20:09:27.785Z,13.60
2022-10-26T20:11:55.778Z,13.60
2022-10-26T20:14:23.769Z,13.60
2022-10-26T20:16:55.933Z,13.60
2022-10-26T20:19:23.887Z,13.60
2022-10-26T20:21:52.149Z,13.60
2022-10-26T20:24:20.114Z,13.60
2022-10-26T20:26:49.433Z,13.50
2022-10-26T20:29:21.739Z,13.50
2022-10-26T20:31:59.264Z,13.50
2022-10-26T20:37:02.821Z,13.50
2022-10-26T20:39:31.519Z,13.50
2022-10-26T20:42:00.167Z,13.50
2022-10-26T20:44:32.077Z,13.50
2022-10-26T20:47:02.196Z,13.40
2022-10-26T20:49:30.815Z,13.40
2022-10-26T20:52:21.691Z,13.40
2022-10-26T20:54:55.076Z,13.40
2022-10-26T20:57:29.292Z,13.40
2022-10-26T21:00:03.872Z,13.40
2022-10-26T21:02:34.785Z,13.30
2022-10-26T21:05:02.742Z,13.30
2022-10-26T21:07:30.640Z,13.30
2022-10-26T21:09:58.598Z,13.30
2022-10-26T21:12:26.786Z,13.30
2022-10-26T21:14:54.717Z,13.30
2022-10-26T21:17:22.610Z,13.30
2022-10-26T21:19:51.872Z,13.20
2022-10-26T21:22:19.752Z,13.20
2022-10-26T21:24:47.634Z,13.20
2022-10-26T21:27:15.474Z,13.20
2022-10-26T21:29:43.429Z,13.20
2022-10-26T21:32:11.571Z,13.20
2022-10-26T21:34:39.474Z,13.20
2022-10-26T21:37:08.851Z,13.20
2022-10-26T21:39:36.766Z,13.10
2022-10-26T21:42:04.851Z,13.20
2022-10-26T21:44:40.905Z,13.10
2022-10-26T21:47:10.022Z,13.10
2022-10-26T21:49:38.327Z,13.10
2022-10-26T21:52:08.779Z,13.10
2022-10-26T21:54:36.636Z,13.10
2022-10-26T21:57:05.643Z,13.10
2022-10-26T21:59:33.553Z,13.10
2022-10-26T22:02:01.647Z,13.10
2022-10-26T22:04:29.823Z,13.00
2022-10-26T22:06:57.933Z,13.10
2022-10-26T22:09:27.643Z,13.00
2022-10-26T22:11:55.550Z,13.00
2022-10-26T22:14:23.568Z,13.00
2022-10-26T22:16:51.672Z,13.00
2022-10-26T22:19:19.568Z,13.00
2022-10-26T22:21:47.773Z,13.00
2022-10-26T22:24:16.166Z,12.90
2022-10-26T22:26:45.713Z,12.90
2022-10-26T22:29:16.858Z,12.90
2022-10-26T22:31:45.153Z,12.90
2022-10-26T22:34:17.295Z,12.90
2022-10-26T22:36:45.679Z,12.90
2022-10-26T22:39:13.829Z,12.90
2022-10-26T22:41:41.690Z,12.90
2022-10-26T22:44:13.788Z,12.90
2022-10-26T22:46:41.716Z,12.80
2022-10-26T22:49:09.659Z,12.80
2022-10-26T22:51:37.555Z,12.80
2022-10-26T22:54:06.692Z,12.80
2022-10-26T22:56:36.272Z,12.80
2022-10-26T22:59:05.941Z,12.80
2022-10-26T23:01:38.984Z,12.80
2022-10-26T23:04:06.981Z,12.80
2022-10-26T23:06:35.421Z,12.70
2022-10-26T23:09:03.635Z,12.70
2022-10-26T23:11:31.683Z,12.70
2022-10-26T23:14:01.903Z,12.80
2022-10-26T23:16:31.088Z,12.70
2022-10-26T23:19:00.731Z,12.70
2022-10-26T23:21:29.748Z,12.70
2022-10-26T23:23:58.172Z,12.70
2022-10-26T23:26:26.185Z,12.70
2022-10-26T23:28:54.091Z,12.70
2022-10-26T23:31:25.441Z,12.70
2022-10-26T23:33:54.561Z,12.70
2022-10-26T23:36:24.571Z,12.70
2022-10-26T23:38:52.562Z,12.70
2022-10-26T23:41:20.502Z,12.60
2022-10-26T23:43:48.674Z,12.60
2022-10-26T23:46:16.703Z,12.60
2022-10-26T23:48:44.650Z,12.60
2022-10-26T23:51:12.541Z,12.60
2022-10-26T23:53:42.752Z,12.60
2022-10-26T23:56:10.714Z,12.60
2022-10-26T23:58:38.623Z,12.60
